Time;durP1;ratioP1;P1;durP2;ratioP2;P2;SDS_P1;SDS_P2;PMS_P1;PMS_P2;Temp;Humidity;BMP_temperature;BMP_pressure;BME280_temperature;BME280_humidity;BME280_pressure;Samples;Min_cycle;Max_cycle;Signal;HPM_P1;HPM_P2
2023/10/18 00:01:23;;;;;;;5.90;4.87;;;4.90;93.90;;;;;;856139;163;27600;-77
2023/10/18 00:03:49;;;;;;;5.10;4.07;;;4.90;94.00;;;;;;872567;160;27423;-78
2023/10/18 00:06:16;;;;;;;4.23;3.83;;;4.90;94.10;;;;;;870269;160;27577;-76
2023/10/18 00:08:43;;;;;;;4.93;3.50;;;4.80;94.30;;;;;;870009;160;27699;-78
2023/10/18 00:11:09;;;;;;;4.93;3.70;;;4.80;94.50;;;;;;859926;160;27471;-78
2023/10/18 00:13:36;;;;;;;3.70;3.40;;;4.80;94.60;;;;;;886282;158;27393;-78
2023/10/18 00:16:02;;;;;;;4.70;3.70;;;4.80;94.90;;;;;;886854;155;27470;-75
2023/10/18 00:18:29;;;;;;;4.17;3.77;;;4.80;95.00;;;;;;888509;158;27913;-74
2023/10/18 00:21:01;;;;;;;4.13;3.57;;;4.80;95.30;;;;;;885993;158;27523;-72
2023/10/18 00:23:28;;;;;;;4.80;4.33;;;4.80;95.40;;;;;;887112;158;27405;-73
2023/10/18 00:25:54;;;;;;;4.70;3.50;;;4.90;95.20;;;;;;885671;158;27463;-75
2023/10/18 00:28:21;;;;;;;4.00;3.37;;;4.90;95.70;;;;;;904096;155;27370;-77
2023/10/18 00:30:50;;;;;;;3.70;3.17;;;4.90;95.80;;;;;;902737;155;27513;-78
2023/10/18 00:33:15;;;;;;;3.53;3.23;;;4.90;95.80;;;;;;901583;155;27371;-78
2023/10/18 00:35:41;;;;;;;3.80;3.50;;;4.90;95.70;;;;;;884008;158;27411;-77
2023/10/18 00:38:18;;;;;;;5.00;3.67;;;4.90;95.70;;;;;;887757;158;27860;-78
2023/10/18 00:40:40;;;;;;;3.80;3.50;;;5.00;95.60;;;;;;902833;155;27536;-78
2023/10/18 00:43:22;;;;;;;3.83;3.47;;;4.90;95.60;;;;;;903751;155;27372;-77
2023/10/18 00:45:47;;;;;;;3.90;3.60;;;4.90;95.60;;;;;;900992;155;27514;-76
2023/10/18 00:48:14;;;;;;;4.20;3.80;;;4.90;95.50;;;;;;903106;155;27330;-77
2023/10/18 00:50:43;;;;;;;4.53;3.77;;;4.90;95.50;;;;;;902524;155;27369;-77
2023/10/18 00:53:10;;;;;;;4.00;3.70;;;4.90;95.50;;;;;;901108;155;27345;-77
2023/10/18 00:55:36;;;;;;;3.87;3.57;;;4.90;95.50;;;;;;899702;155;27482;-77
2023/10/18 00:58:08;;;;;;;4.20;3.80;;;4.90;95.50;;;;;;901864;155;27468;-77
2023/10/18 01:00:32;;;;;;;3.80;3.50;;;4.90;95.70;;;;;;902444;155;27421;-78
2023/10/18 01:03:00;;;;;;;4.67;3.13;;;4.90;95.50;;;;;;902169;155;27466;-78
2023/10/18 01:05:26;;;;;;;4.00;3.67;;;4.90;95.70;;;;;;900957;155;27496;-78
2023/10/18 01:07:53;;;;;;;4.50;3.50;;;4.80;95.80;;;;;;900938;155;27351;-78
2023/10/18 01:10:23;;;;;;;3.93;3.40;;;4.80;96.00;;;;;;899902;155;27442;-75
2023/10/18 01:12:45;;;;;;;3.73;3.43;;;4.90;96.20;;;;;;900619;155;27462;-78
2023/10/18 01:15:19;;;;;;;3.90;3.60;;;4.90;96.30;;;;;;902918;155;27402;-77
2023/10/18 01:17:42;;;;;;;3.43;3.13;;;4.90;96.40;;;;;;903315;155;27882;-77
2023/10/18 01:22:42;;;;;;;3.57;3.27;;;4.90;96.40;;;;;;865040;161;27525;-77
2023/10/18 01:25:13;;;;;;;3.87;3.30;;;4.90;96.20;;;;;;885261;156;27546;-78
2023/10/18 01:27:34;;;;;;;3.50;3.20;;;4.90;96.10;;;;;;884667;158;27676;-77
2023/10/18 01:30:00;;;;;;;3.20;2.90;;;4.90;96.00;;;;;;885686;158;27457;-77
2023/10/18 01:32:28;;;;;;;3.77;3.13;;;4.80;95.90;;;;;;871441;160;27534;-77
2023/10/18 01:34:55;;;;;;;5.37;3.63;;;4.80;95.90;;;;;;886208;158;27504;-75
2023/10/18 01:37:21;;;;;;;3.80;3.50;;;4.80;95.90;;;;;;870087;160;27494;-78
2023/10/18 01:39:52;;;;;;;3.70;3.40;;;4.80;96.10;;;;;;903292;155;27359;-78
2023/10/18 01:42:13;;;;;;;3.80;3.50;;;4.80;96.20;;;;;;905122;155;28036;-78
2023/10/18 01:44:40;;;;;;;4.00;3.70;;;4.80;96.30;;;;;;902081;155;27368;-77
2023/10/18 01:47:09;;;;;;;3.40;3.10;;;4.80;96.30;;;;;;904543;155;27402;-78
2023/10/18 01:49:54;;;;;;;4.10;3.63;;;4.70;96.30;;;;;;884198;158;27914;-78
2023/10/18 01:52:06;;;;;;;4.87;3.50;;;4.70;96.40;;;;;;882903;158;27476;-78
2023/10/18 01:54:32;;;;;;;3.47;3.17;;;4.70;96.40;;;;;;871202;160;27576;-78
2023/10/18 01:56:59;;;;;;;3.20;2.90;;;4.70;96.40;;;;;;871700;160;28545;-78
2023/10/18 01:59:28;;;;;;;3.60;3.30;;;4.70;96.40;;;;;;886418;158;27412;-78
2023/10/18 02:01:55;;;;;;;3.63;3.33;;;4.70;96.40;;;;;;886451;158;27406;-76
2023/10/18 02:04:27;;;;;;;3.63;3.30;;;4.70;96.40;;;;;;904047;155;27506;-77
2023/10/18 02:06:57;;;;;;;3.73;3.00;;;4.70;96.40;;;;;;901695;155;27500;-78
2023/10/18 02:09:20;;;;;;;4.57;3.10;;;4.60;96.40;;;;;;902192;155;27331;-77
2023/10/18 02:11:46;;;;;;;4.40;4.00;;;4.60;96.40;;;;;;905465;155;27395;-78
2023/10/18 02:14:13;;;;;;;3.90;3.60;;;4.60;96.60;;;;;;886986;158;27495;-75
2023/10/18 02:16:40;;;;;;;3.97;3.57;;;4.60;96.80;;;;;;886955;158;28084;-77
2023/10/18 02:19:07;;;;;;;5.33;3.33;;;4.60;97.10;;;;;;884929;158;27418;-78
2023/10/18 02:21:34;;;;;;;3.57;3.27;;;4.60;97.30;;;;;;885901;158;27404;-78
2023/10/18 02:23:59;;;;;;;3.70;3.40;;;4.70;97.40;;;;;;885870;158;27527;-75
2023/10/18 02:26:32;;;;;;;3.80;3.40;;;4.60;97.70;;;;;;887210;157;27456;-77
2023/10/18 02:29:11;;;;;;;3.90;3.27;;;4.60;97.90;;;;;;884535;158;27418;-78
2023/10/18 02:31:28;;;;;;;3.80;3.13;;;4.70;97.90;;;;;;886467;158;27526;-78
2023/10/18 02:33:54;;;;;;;3.53;3.23;;;4.70;97.70;;;;;;889000;158;27514;-78
2023/10/18 02:36:32;;;;;;;3.77;3.20;;;4.70;97.40;;;;;;888318;158;27444;-76
2023/10/18 02:38:49;;;;;;;3.90;3.40;;;4.70;97.20;;;;;;884973;158;27971;-75
2023/10/18 02:41:26;;;;;;;3.90;3.50;;;4.70;96.80;;;;;;871025;160;27549;-75
2023/10/18 02:43:51;;;;;;;3.50;3.20;;;4.70;96.70;;;;;;884487;158;27415;-76
2023/10/18 02:46:16;;;;;;;3.87;3.47;;;4.70;96.60;;;;;;885462;158;27586;-76
2023/10/18 02:48:41;;;;;;;3.83;3.13;;;4.60;96.40;;;;;;887232;157;27373;-76
2023/10/18 02:51:11;;;;;;;3.37;3.07;;;4.60;96.40;;;;;;888614;157;27407;-76
2023/10/18 02:53:40;;;;;;;3.20;3.00;;;4.60;96.40;;;;;;901965;155;27413;-75
2023/10/18 02:56:04;;;;;;;3.90;3.50;;;4.50;96.30;;;;;;903374;155;27497;-75
2023/10/18 02:58:33;;;;;;;3.53;3.23;;;4.50;96.40;;;;;;904709;152;27495;-75
2023/10/18 03:01:03;;;;;;;3.37;2.97;;;4.50;96.50;;;;;;904919;155;27537;-75
2023/10/18 03:03:25;;;;;;;3.83;3.13;;;4.50;96.70;;;;;;902990;155;27402;-75
2023/10/18 03:05:51;;;;;;;4.30;3.50;;;4.40;96.90;;;;;;903613;155;27484;-75
2023/10/18 03:08:20;;;;;;;3.43;3.07;;;4.40;97.00;;;;;;902931;155;28408;-75
2023/10/18 03:10:47;;;;;;;3.50;3.00;;;4.40;97.10;;;;;;902200;155;27517;-75
2023/10/18 03:13:13;;;;;;;6.27;3.37;;;4.40;97.20;;;;;;906668;153;27501;-75
2023/10/18 03:15:52;;;;;;;3.37;3.07;;;4.40;97.20;;;;;;913649;153;27424;-75
2023/10/18 03:18:06;;;;;;;3.43;3.13;;;4.40;97.30;;;;;;913488;153;27494;-75
2023/10/18 03:20:32;;;;;;;3.20;2.90;;;4.40;97.30;;;;;;914175;153;27532;-75
2023/10/18 03:23:02;;;;;;;3.80;3.20;;;4.30;97.40;;;;;;882371;158;27477;-75
2023/10/18 03:25:30;;;;;;;3.10;2.80;;;4.30;97.40;;;;;;914724;153;27448;-75
2023/10/18 03:27:58;;;;;;;3.50;3.20;;;4.30;97.40;;;;;;913250;153;27433;-75
2023/10/18 03:30:23;;;;;;;4.63;3.47;;;4.30;97.40;;;;;;912431;153;27366;-75
2023/10/18 03:32:51;;;;;;;4.37;3.00;;;4.30;97.20;;;;;;913293;153;27370;-75
2023/10/18 03:35:22;;;;;;;3.33;3.03;;;4.30;97.30;;;;;;915492;153;28901;-75
2023/10/18 03:37:46;;;;;;;3.30;3.00;;;4.20;97.20;;;;;;913110;153;27406;-75
2023/10/18 03:40:26;;;;;;;3.20;3.00;;;4.20;97.30;;;;;;897660;156;27525;-75
2023/10/18 03:42:50;;;;;;;3.87;3.27;;;4.20;97.30;;;;;;912584;153;27505;-75
2023/10/18 03:45:20;;;;;;;3.80;3.40;;;4.20;97.40;;;;;;915968;153;27957;-75
2023/10/18 03:47:41;;;;;;;3.40;3.10;;;4.20;97.70;;;;;;898840;156;27496;-76
2023/10/18 03:50:15;;;;;;;4.00;3.20;;;4.20;97.50;;;;;;912891;153;27457;-76
2023/10/18 03:52:40;;;;;;;4.47;3.13;;;4.20;97.50;;;;;;900888;156;27445;-76
2023/10/18 03:55:14;;;;;;;3.60;3.30;;;4.10;97.40;;;;;;915645;153;27407;-76
2023/10/18 03:57:38;;;;;;;3.53;3.10;;;4.10;97.50;;;;;;893689;157;27929;-75
2023/10/18 04:00:28;;;;;;;4.33;3.17;;;4.10;97.60;;;;;;881645;161;27477;-75
2023/10/18 04:02:27;;;;;;;4.03;3.63;;;4.10;97.60;;;;;;915926;153;27383;-75
2023/10/18 04:05:00;;;;;;;3.67;3.37;;;4.10;97.60;;;;;;896519;156;27478;-75
2023/10/18 04:07:26;;;;;;;3.83;3.30;;;4.10;97.70;;;;;;913659;153;27701;-75
2023/10/18 04:12:28;;;;;;;4.23;3.87;;;4.10;97.80;;;;;;912101;153;27406;-75
2023/10/18 04:14:58;;;;;;;3.33;3.03;;;4.00;97.80;;;;;;869949;158;28185;-75
2023/10/18 04:17:31;;;;;;;3.37;3.07;;;4.00;98.00;;;;;;866457;161;28047;-75
2023/10/18 04:19:47;;;;;;;4.03;3.63;;;4.00;98.00;;;;;;880068;158;27435;-75
2023/10/18 04:22:14;;;;;;;3.57;3.23;;;4.00;98.10;;;;;;883503;158;27477;-75
2023/10/18 04:24:40;;;;;;;4.07;3.67;;;4.00;98.10;;;;;;882409;158;27446;-75
2023/10/18 04:27:10;;;;;;;4.30;3.90;;;4.00;98.10;;;;;;881544;158;27862;-75
2023/10/18 04:29:33;;;;;;;3.67;3.37;;;4.00;98.00;;;;;;883346;158;27523;-75
2023/10/18 04:32:03;;;;;;;4.37;3.97;;;4.00;98.00;;;;;;880810;158;27522;-75
2023/10/18 04:34:33;;;;;;;3.90;3.60;;;4.00;98.00;;;;;;881750;158;27463;-75
2023/10/18 04:36:56;;;;;;;4.93;3.90;;;4.00;98.00;;;;;;883881;158;27510;-75
2023/10/18 04:39:26;;;;;;;3.67;3.37;;;4.00;98.10;;;;;;885821;158;27485;-75
2023/10/18 04:41:49;;;;;;;4.20;3.80;;;4.00;98.20;;;;;;881711;158;28862;-75
2023/10/18 04:44:20;;;;;;;6.33;3.77;;;3.90;98.30;;;;;;879324;159;27462;-75
2023/10/18 04:46:48;;;;;;;3.67;3.30;;;4.00;98.40;;;;;;880914;158;27558;-75
2023/10/18 04:54:18;;;;;;;4.37;3.97;;;3.90;98.50;;;;;;886469;158;27458;-75
2023/10/18 04:56:46;;;;;;;4.50;3.87;;;3.90;98.50;;;;;;869509;161;27531;-75
2023/10/18 05:04:20;;;;;;;4.70;4.20;;;3.90;98.50;;;;;;885966;158;27506;-75
2023/10/18 05:06:56;;;;;;;5.17;4.40;;;3.90;98.50;;;;;;880547;158;27882;-75
2023/10/18 05:09:14;;;;;;;4.70;4.17;;;3.90;98.70;;;;;;871647;161;27397;-77
2023/10/18 05:11:47;;;;;;;5.13;4.47;;;3.90;98.90;;;;;;880591;158;28501;-77
2023/10/18 05:14:14;;;;;;;5.10;4.60;;;3.90;99.00;;;;;;886147;157;27538;-77
2023/10/18 05:16:33;;;;;;;6.10;4.80;;;3.90;99.20;;;;;;885660;158;27524;-77
2023/10/18 05:19:00;;;;;;;5.20;4.70;;;3.90;99.50;;;;;;871365;160;27551;-77
2023/10/18 05:21:27;;;;;;;6.37;5.10;;;3.90;99.70;;;;;;871833;160;27498;-77
2023/10/18 05:23:53;;;;;;;5.33;3.67;;;3.90;99.70;;;;;;869966;160;27904;-77
2023/10/18 05:26:20;;;;;;;5.00;4.23;;;4.00;99.70;;;;;;870663;160;27466;-77
2023/10/18 05:28:49;;;;;;;5.23;4.33;;;4.00;99.70;;;;;;884996;158;27489;-77
2023/10/18 05:36:54;;;;;;;6.93;5.20;;;4.00;99.60;;;;;;868933;160;27472;-77
2023/10/18 05:39:18;;;;;;;6.80;5.20;;;4.00;99.50;;;;;;884131;158;27442;-77
2023/10/18 05:41:49;;;;;;;6.07;5.47;;;4.00;99.60;;;;;;883604;157;27489;-77
2023/10/18 05:44:13;;;;;;;9.33;5.00;;;4.00;99.70;;;;;;885598;158;27583;-77
2023/10/18 05:46:41;;;;;;;6.93;4.43;;;4.10;99.80;;;;;;884989;158;27860;-77
2023/10/18 05:49:16;;;;;;;6.13;4.53;;;4.10;99.90;;;;;;874471;160;27508;-77
2023/10/18 05:52:15;;;;;;;5.20;4.40;;;4.10;99.90;;;;;;886794;158;27442;-77
2023/10/18 05:54:24;;;;;;;7.07;4.63;;;4.10;99.90;;;;;;884604;158;27415;-76
2023/10/18 05:56:50;;;;;;;6.00;5.17;;;4.20;99.90;;;;;;889074;157;27442;-77
2023/10/18 06:01:57;;;;;;;5.63;5.00;;;4.20;99.90;;;;;;871298;161;27452;-77
2023/10/18 06:04:24;;;;;;;5.43;4.93;;;4.30;99.90;;;;;;885674;158;27464;-77
2023/10/18 06:06:51;;;;;;;7.40;5.37;;;4.30;99.90;;;;;;883655;158;27403;-76
2023/10/18 06:10:18;;;;;;;5.70;5.20;;;4.30;99.90;;;;;;883900;158;27525;-76
2023/10/18 06:11:53;;;;;;;5.97;5.30;;;4.40;99.90;;;;;;886705;157;27449;-77
2023/10/18 06:14:19;;;;;;;6.40;5.47;;;4.40;99.90;;;;;;887147;158;27426;-77
2023/10/18 06:16:51;;;;;;;7.03;5.97;;;4.40;99.90;;;;;;883262;158;27454;-76
2023/10/18 06:19:13;;;;;;;6.60;5.37;;;4.40;99.90;;;;;;886781;158;27519;-76
2023/10/18 06:21:57;;;;;;;5.30;4.83;;;4.50;99.90;;;;;;882067;158;27380;-76
2023/10/18 06:24:10;;;;;;;6.27;5.33;;;4.50;99.90;;;;;;881116;158;27818;-76
2023/10/18 06:26:36;;;;;;;5.40;4.90;;;4.60;99.90;;;;;;882687;158;27484;-76
2023/10/18 06:29:02;;;;;;;5.83;4.77;;;4.60;99.90;;;;;;883549;158;27523;-76
2023/10/18 06:31:28;;;;;;;4.97;4.43;;;4.70;99.90;;;;;;884341;158;27525;-76
2023/10/18 06:33:57;;;;;;;5.70;4.60;;;4.80;99.90;;;;;;875342;160;27451;-76
2023/10/18 06:36:22;;;;;;;5.33;4.60;;;4.90;99.90;;;;;;884322;158;27369;-76
2023/10/18 06:38:48;;;;;;;5.63;5.00;;;5.00;99.90;;;;;;882926;158;27463;-76
2023/10/18 06:41:29;;;;;;;4.83;4.37;;;5.10;99.90;;;;;;885910;158;27420;-76
2023/10/18 06:43:52;;;;;;;6.93;4.67;;;5.30;99.90;;;;;;886010;158;27436;-76
2023/10/18 06:46:22;;;;;;;4.67;4.27;;;5.50;99.90;;;;;;884803;158;28123;-76
2023/10/18 06:48:44;;;;;;;6.33;4.67;;;5.70;99.90;;;;;;885026;158;27415;-76
2023/10/18 06:51:17;;;;;;;4.80;4.33;;;5.90;99.90;;;;;;885546;158;27384;-76
2023/10/18 06:53:38;;;;;;;6.30;5.00;;;6.20;99.90;;;;;;884540;158;28695;-76
2023/10/18 06:56:13;;;;;;;5.53;4.50;;;6.60;99.90;;;;;;886352;158;27576;-76
2023/10/18 07:01:08;;;;;;;5.70;4.80;;;7.40;99.90;;;;;;887184;158;27483;-76
2023/10/18 07:03:27;;;;;;;4.43;4.03;;;7.80;99.90;;;;;;882254;158;27456;-76
2023/10/18 07:05:55;;;;;;;6.40;4.97;;;8.30;99.90;;;;;;885377;158;27521;-76
2023/10/18 07:08:34;;;;;;;5.00;4.60;;;8.70;99.90;;;;;;884918;158;27456;-76
2023/10/18 07:11:01;;;;;;;5.00;4.53;;;9.20;99.90;;;;;;888436;158;27470;-76
2023/10/18 07:13:46;;;;;;;5.70;5.10;;;9.60;99.90;;;;;;867075;161;27405;-76
2023/10/18 07:21:34;;;;;;;7.07;6.23;;;10.70;99.90;;;;;;879904;158;27521;-77
2023/10/18 07:24:09;;;;;;;7.80;6.10;;;11.10;99.40;;;;;;867032;161;27507;-76
2023/10/18 07:26:30;;;;;;;6.90;6.27;;;11.40;99.80;;;;;;880175;158;27869;-75
2023/10/18 07:28:57;;;;;;;9.50;6.30;;;11.90;99.90;;;;;;882358;158;27560;-76
2023/10/18 07:31:25;;;;;;;6.77;6.07;;;12.40;99.90;;;;;;880759;158;27442;-76
2023/10/18 07:33:50;;;;;;;5.12;4.72;;;12.90;99.60;;;;;;880813;158;27380;-76
2023/10/18 07:36:19;;;;;;;5.87;5.28;;;13.50;98.70;;;;;;883822;158;28000;-76
2023/10/18 07:38:55;;;;;;;4.95;4.47;;;14.10;97.80;;;;;;880009;158;28079;-76
2023/10/18 07:41:18;;;;;;;5.17;4.78;;;14.70;96.70;;;;;;881767;158;27388;-76
2023/10/18 07:43:44;;;;;;;6.03;4.72;;;15.30;95.30;;;;;;882683;158;27354;-76
2023/10/18 07:46:18;;;;;;;6.33;4.95;;;15.90;94.00;;;;;;882394;158;27521;-76
2023/10/18 07:48:47;;;;;;;5.05;4.65;;;16.50;92.00;;;;;;882578;158;27473;-76
2023/10/18 07:51:43;;;;;;;5.03;4.62;;;17.00;90.50;;;;;;879395;158;27396;-76
2023/10/18 07:53:44;;;;;;;5.10;4.60;;;17.60;87.80;;;;;;880663;158;27498;-76
2023/10/18 07:56:11;;;;;;;5.62;5.12;;;18.10;85.20;;;;;;882068;158;27482;-76
2023/10/18 07:58:47;;;;;;;5.25;4.75;;;18.50;83.30;;;;;;883164;158;27541;-76
2023/10/18 08:03:32;;;;;;;8.53;4.92;;;19.40;80.30;;;;;;866178;161;28657;-76
2023/10/18 08:05:59;;;;;;;6.70;4.72;;;19.80;79.60;;;;;;883868;158;28033;-76
2023/10/18 08:08:25;;;;;;;5.87;5.28;;;20.20;76.80;;;;;;873093;160;27417;-76
2023/10/18 08:10:55;;;;;;;5.37;4.87;;;20.50;74.60;;;;;;883091;158;28548;-76
2023/10/18 08:13:28;;;;;;;6.50;4.50;;;20.90;73.00;;;;;;880737;159;27427;-76
2023/10/18 08:15:54;;;;;;;5.40;4.90;;;21.20;72.50;;;;;;885435;158;27442;-76
2023/10/18 08:19:07;;;;;;;7.62;5.90;;;21.50;70.80;;;;;;887275;158;27510;-76
2023/10/18 08:23:37;;;;;;;4.70;4.30;;;22.00;68.20;;;;;;886860;158;27504;-76
2023/10/18 08:26:06;;;;;;;3.72;3.40;;;22.20;66.80;;;;;;880345;158;27368;-76
2023/10/18 08:28:54;;;;;;;3.37;3.08;;;22.30;65.20;;;;;;884671;158;27523;-76
2023/10/18 08:33:28;;;;;;;3.50;3.20;;;22.20;62.00;;;;;;885659;158;27473;-73
2023/10/18 08:35:58;;;;;;;4.28;3.10;;;22.00;61.40;;;;;;887889;158;28316;-74
2023/10/18 08:38:26;;;;;;;3.37;3.08;;;21.80;61.00;;;;;;887096;158;27602;-76
2023/10/18 08:40:49;;;;;;;3.35;3.10;;;21.60;61.20;;;;;;885084;158;27440;-76
2023/10/18 08:43:23;;;;;;;3.47;2.90;;;21.50;61.30;;;;;;884834;158;27881;-76
2023/10/18 08:45:47;;;;;;;3.40;3.10;;;21.40;61.30;;;;;;884947;158;27782;-76
2023/10/18 08:48:16;;;;;;;4.08;3.08;;;21.30;61.20;;;;;;885995;158;27431;-76
2023/10/18 08:50:41;;;;;;;3.37;3.08;;;21.20;61.00;;;;;;885208;158;27464;-76
2023/10/18 08:53:07;;;;;;;4.10;3.17;;;21.20;61.10;;;;;;886227;158;27354;-76
2023/10/18 08:55:45;;;;;;;3.02;2.77;;;21.30;61.50;;;;;;884360;158;27423;-76
2023/10/18 08:58:12;;;;;;;3.50;3.20;;;21.40;61.50;;;;;;885603;158;27572;-76
2023/10/18 09:03:07;;;;;;;3.12;2.83;;;21.50;60.40;;;;;;885898;158;27379;-76
2023/10/18 09:05:32;;;;;;;3.33;3.02;;;21.60;60.00;;;;;;888120;158;27523;-76
2023/10/18 09:08:03;;;;;;;3.05;2.75;;;21.60;59.50;;;;;;885622;158;27429;-76
2023/10/18 09:10:46;;;;;;;5.45;3.20;;;21.60;59.00;;;;;;883543;158;27457;-76
2023/10/18 09:16:01;;;;;;;3.52;2.70;;;21.60;58.60;;;;;;883297;158;28281;-76
2023/10/18 09:18:23;;;;;;;3.15;2.85;;;21.60;58.70;;;;;;881699;158;28698;-76
2023/10/18 09:20:49;;;;;;;3.15;2.85;;;21.50;58.80;;;;;;883205;158;27468;-76
2023/10/18 09:23:21;;;;;;;2.92;2.67;;;21.30;58.10;;;;;;881359;158;27402;-76
2023/10/18 09:25:48;;;;;;;3.22;3.02;;;21.20;57.70;;;;;;882231;158;27490;-76
2023/10/18 09:28:19;;;;;;;2.92;2.60;;;21.00;57.70;;;;;;881663;158;27469;-76
2023/10/18 09:30:41;;;;;;;3.20;2.95;;;20.80;57.30;;;;;;881587;158;27374;-76
2023/10/18 09:33:08;;;;;;;3.40;3.10;;;20.60;57.60;;;;;;883043;158;27424;-76
2023/10/18 09:35:34;;;;;;;3.83;3.02;;;20.40;57.70;;;;;;882633;158;27416;-76
2023/10/18 09:38:03;;;;;;;2.92;2.70;;;20.20;58.10;;;;;;884557;158;27506;-75
2023/10/18 09:40:28;;;;;;;5.72;3.70;;;20.00;58.40;;;;;;882504;158;27409;-77
2023/10/18 09:42:54;;;;;;;3.40;3.08;;;19.90;58.60;;;;;;882382;158;27400;-78
2023/10/18 09:45:21;;;;;;;2.83;2.62;;;19.90;59.00;;;;;;882694;158;27437;-78
2023/10/18 09:47:47;;;;;;;3.30;3.00;;;19.80;59.20;;;;;;883239;158;27456;-76
2023/10/18 09:50:23;;;;;;;3.77;2.85;;;19.90;59.00;;;;;;880411;158;27425;-76
2023/10/18 09:52:56;;;;;;;2.95;2.65;;;19.90;59.00;;;;;;881071;158;27417;-76
2023/10/18 09:55:16;;;;;;;3.58;2.52;;;19.90;58.50;;;;;;880932;158;27610;-76
2023/10/18 09:57:48;;;;;;;2.67;2.47;;;19.90;58.60;;;;;;880976;158;27406;-76
2023/10/18 10:00:11;;;;;;;2.87;2.55;;;19.80;57.90;;;;;;881592;158;27908;-76
2023/10/18 10:02:36;;;;;;;2.77;2.40;;;19.70;57.80;;;;;;881983;158;27393;-76
2023/10/18 10:05:12;;;;;;;3.20;2.87;;;19.50;57.60;;;;;;882658;158;27556;-76
2023/10/18 10:07:39;;;;;;;2.95;2.27;;;19.40;57.40;;;;;;878586;158;27413;-76
2023/10/18 10:10:17;;;;;;;4.17;2.77;;;19.20;57.50;;;;;;880540;158;27966;-76
2023/10/18 10:12:28;;;;;;;2.58;2.37;;;19.00;57.50;;;;;;879975;158;27871;-76
2023/10/18 10:14:55;;;;;;;2.37;2.17;;;18.80;57.80;;;;;;884190;158;27555;-76
2023/10/18 10:17:21;;;;;;;2.50;2.30;;;18.70;57.80;;;;;;883434;158;27553;-76
2023/10/18 10:19:53;;;;;;;2.67;2.47;;;18.50;57.90;;;;;;885384;158;27535;-75
2023/10/18 10:22:24;;;;;;;2.67;2.47;;;18.40;58.00;;;;;;885523;157;27400;-76
2023/10/18 10:24:51;;;;;;;2.80;2.60;;;18.20;58.20;;;;;;885546;157;27566;-75
2023/10/18 10:29:56;;;;;;;2.92;2.47;;;18.10;58.70;;;;;;893851;155;27508;-76
2023/10/18 10:32:15;;;;;;;2.98;2.77;;;18.00;58.80;;;;;;900494;155;27426;-75
2023/10/18 10:34:42;;;;;;;3.10;2.30;;;18.00;58.90;;;;;;899161;155;27478;-76
2023/10/18 10:37:08;;;;;;;4.03;2.87;;;18.00;59.10;;;;;;881105;158;27567;-75
2023/10/18 10:39:44;;;;;;;2.72;2.52;;;17.90;58.90;;;;;;884415;158;27456;-76
2023/10/18 10:42:19;;;;;;;2.92;2.62;;;18.00;58.90;;;;;;866581;160;27397;-76
2023/10/18 10:44:31;;;;;;;4.35;2.47;;;18.00;58.80;;;;;;882390;157;27390;-76
2023/10/18 10:47:31;;;;;;;2.87;2.25;;;18.00;58.70;;;;;;886958;157;27450;-78
2023/10/18 10:50:01;;;;;;;3.40;2.55;;;17.90;58.70;;;;;;886038;158;27578;-80
2023/10/18 10:52:30;;;;;;;2.35;2.15;;;17.90;58.60;;;;;;900900;155;27447;-80
2023/10/18 10:54:54;;;;;;;3.22;2.75;;;17.80;58.60;;;;;;897728;155;27545;-80
2023/10/18 10:57:21;;;;;;;4.22;2.55;;;17.80;58.60;;;;;;900133;155;27527;-78
2023/10/18 10:59:50;;;;;;;3.77;2.90;;;17.70;58.30;;;;;;883347;158;27411;-76
2023/10/18 11:02:24;;;;;;;2.90;2.60;;;17.60;58.30;;;;;;883435;158;27960;-76
2023/10/18 11:07:21;;;;;;;4.10;2.55;;;17.40;58.30;;;;;;882971;158;27471;-75
2023/10/18 11:09:43;;;;;;;2.87;2.60;;;17.30;58.50;;;;;;900054;155;27521;-76
2023/10/18 11:12:12;;;;;;;3.10;2.90;;;17.20;58.60;;;;;;899172;155;27384;-76
2023/10/18 11:14:38;;;;;;;3.22;2.60;;;17.20;58.80;;;;;;900350;155;27392;-76
2023/10/18 11:17:42;;;;;;;3.17;2.40;;;17.10;59.00;;;;;;899190;155;27450;-76
2023/10/18 11:19:40;;;;;;;3.20;2.90;;;17.10;59.00;;;;;;889154;155;27904;-76
2023/10/18 11:22:05;;;;;;;2.67;2.45;;;17.00;59.00;;;;;;878072;160;27463;-76
2023/10/18 11:24:30;;;;;;;2.62;2.42;;;17.00;59.10;;;;;;882160;158;27476;-76
2023/10/18 11:26:57;;;;;;;3.25;2.95;;;17.00;59.30;;;;;;879876;158;27333;-76
2023/10/18 11:29:26;;;;;;;4.33;2.87;;;17.00;59.40;;;;;;877134;160;27413;-76
2023/10/18 11:31:55;;;;;;;2.65;2.20;;;17.00;59.40;;;;;;884029;158;27377;-76
2023/10/18 11:34:21;;;;;;;2.95;2.65;;;17.00;59.30;;;;;;866219;160;27570;-76
2023/10/18 11:36:46;;;;;;;5.45;3.98;;;17.00;59.30;;;;;;870176;160;28277;-76
2023/10/18 11:39:18;;;;;;;3.20;2.90;;;16.90;59.00;;;;;;869734;160;27394;-76
2023/10/18 11:41:44;;;;;;;3.20;2.85;;;16.90;59.00;;;;;;877641;160;27515;-76
2023/10/18 11:44:14;;;;;;;2.80;2.55;;;16.90;59.00;;;;;;867441;160;27494;-76
2023/10/18 11:46:50;;;;;;;3.40;2.75;;;16.90;59.10;;;;;;881799;158;27505;-76
2023/10/18 11:49:19;;;;;;;3.02;2.72;;;16.90;59.20;;;;;;883552;158;27445;-76
2023/10/18 11:51:45;;;;;;;2.60;2.40;;;16.80;59.40;;;;;;870681;160;27461;-76
2023/10/18 11:54:15;;;;;;;2.87;2.60;;;16.90;59.70;;;;;;867967;160;28530;-76
2023/10/18 11:56:41;;;;;;;3.62;2.58;;;16.90;59.80;;;;;;883732;158;27549;-76
2023/10/18 11:59:08;;;;;;;3.35;2.52;;;17.00;59.70;;;;;;881822;158;27517;-76
2023/10/18 12:01:34;;;;;;;3.22;2.80;;;17.10;59.80;;;;;;897126;155;27432;-76
2023/10/18 12:04:01;;;;;;;3.35;2.62;;;17.20;59.70;;;;;;867849;160;27416;-76
2023/10/18 12:06:28;;;;;;;3.22;2.60;;;17.20;59.60;;;;;;880922;158;27452;-77
2023/10/18 12:11:39;;;;;;;3.02;2.83;;;17.40;59.40;;;;;;884029;158;27431;-78
2023/10/18 12:14:08;;;;;;;3.20;2.62;;;17.50;59.30;;;;;;882875;158;27448;-78
2023/10/18 12:16:32;;;;;;;2.37;2.22;;;17.50;59.10;;;;;;881877;158;27477;-78
2023/10/18 12:18:59;;;;;;;2.80;2.58;;;17.60;59.60;;;;;;880722;158;28424;-78
2023/10/18 12:21:31;;;;;;;2.25;2.10;;;17.60;58.90;;;;;;883657;158;27347;-78
2023/10/18 12:23:58;;;;;;;2.92;2.65;;;17.60;58.70;;;;;;877951;158;28007;-78
2023/10/18 12:26:24;;;;;;;3.85;3.27;;;17.70;58.70;;;;;;881418;158;27423;-79
2023/10/18 12:28:52;;;;;;;3.50;2.70;;;17.70;58.60;;;;;;879002;158;27539;-79
2023/10/18 12:31:26;;;;;;;2.37;2.17;;;17.80;58.60;;;;;;879662;158;27471;-79
2023/10/18 12:33:49;;;;;;;2.37;2.02;;;17.80;58.70;;;;;;866284;161;27501;-77
2023/10/18 12:36:22;;;;;;;2.47;2.27;;;17.80;58.70;;;;;;879412;158;27838;-76
2023/10/18 12:38:39;;;;;;;2.87;2.42;;;17.90;58.70;;;;;;884275;158;27442;-79
2023/10/18 12:41:53;;;;;;;3.00;2.70;;;18.00;58.60;;;;;;878739;158;27508;-78
2023/10/18 12:43:31;;;;;;;3.33;2.55;;;18.00;58.50;;;;;;870103;158;27417;-76
2023/10/18 12:45:57;;;;;;;2.17;2.02;;;18.10;58.60;;;;;;878646;158;27494;-77
2023/10/18 12:48:24;;;;;;;3.35;2.50;;;18.20;58.50;;;;;;879395;158;28357;-76
2023/10/18 12:50:51;;;;;;;3.10;2.08;;;18.30;58.50;;;;;;878455;158;27503;-77
2023/10/18 12:55:57;;;;;;;2.95;2.10;;;18.40;58.60;;;;;;879491;158;27468;-78
2023/10/18 12:58:30;;;;;;;2.75;2.10;;;18.50;58.50;;;;;;879086;158;27492;-77
2023/10/18 13:01:05;;;;;;;2.47;2.00;;;18.70;58.20;;;;;;881687;158;27418;-77
2023/10/18 13:03:24;;;;;;;2.08;1.98;;;18.70;57.80;;;;;;883254;158;27482;-79
2023/10/18 13:05:52;;;;;;;2.40;2.20;;;18.80;57.70;;;;;;882373;158;27489;-80
2023/10/18 13:08:22;;;;;;;3.90;2.45;;;18.80;57.50;;;;;;882490;158;27529;-76
2023/10/18 13:10:48;;;;;;;2.80;2.10;;;18.90;57.30;;;;;;880875;158;27497;-76
2023/10/18 13:13:16;;;;;;;2.47;2.27;;;18.90;57.20;;;;;;882841;158;27362;-76
2023/10/18 13:15:40;;;;;;;4.05;2.37;;;18.80;57.00;;;;;;881386;158;27412;-76
2023/10/18 13:18:03;;;;;;;3.42;2.37;;;18.80;56.70;;;;;;882094;158;27428;-76
2023/10/18 13:20:34;;;;;;;3.17;2.37;;;18.70;56.40;;;;;;884619;158;27510;-76
2023/10/18 13:22:55;;;;;;;2.12;2.00;;;18.60;56.60;;;;;;884094;158;27381;-76
2023/10/18 13:25:55;;;;;;;2.80;2.37;;;18.50;56.70;;;;;;883897;158;27411;-76
2023/10/18 13:27:54;;;;;;;2.50;1.90;;;18.50;56.80;;;;;;874481;158;27446;-76
2023/10/18 13:30:33;;;;;;;2.10;2.00;;;18.40;56.70;;;;;;883312;158;27404;-76
2023/10/18 13:33:01;;;;;;;2.40;2.17;;;18.40;56.70;;;;;;881698;158;27430;-76
2023/10/18 13:35:28;;;;;;;2.42;2.08;;;18.30;56.90;;;;;;881360;158;27488;-76
2023/10/18 13:37:53;;;;;;;2.40;2.20;;;18.30;56.90;;;;;;881381;158;27454;-76
2023/10/18 13:40:19;;;;;;;2.77;2.50;;;18.20;57.60;;;;;;883603;158;27526;-76
2023/10/18 13:42:45;;;;;;;3.05;2.00;;;18.20;57.10;;;;;;883791;158;27369;-76
2023/10/18 13:45:15;;;;;;;4.00;1.92;;;18.20;57.00;;;;;;882708;158;27714;-76
2023/10/18 13:47:39;;;;;;;2.70;2.37;;;18.20;57.20;;;;;;882167;158;27459;-76
2023/10/18 13:50:09;;;;;;;2.52;2.20;;;18.20;57.30;;;;;;882061;158;27507;-76